• Join FlightAware (Why Join?)
  • Login
  • US Flag 
12:10AM EDT


 

Airport Tracker/Info


-or-


 

Live Flight TrackerFlight Track Log ✈ UAL6631 ✈ 12-May-2013 ✈ KIAH - KEWR

Flight Track Log - Related Links

Times and Time Zones

All times are in EDT time to prevent confusion due to time zone crossing. See the UAL6631 flight status page for this flight to view local times or setup timezone preferences in your user account.

Time Position Orientation Groundspeed Altitude Reporting Facility
EDT Latitude Longitude Course Direction KTS MPH feet Rate Location/Type
03:06PM 29.9781 -95.2840 99° East 178 205 1,000  Level FlightAware ADS-B
03:06PM 29.9788 -95.2805 77° East 181 208 1,000 840 Level FlightAware ADS-B
03:06PM 29.9798 -95.2777 68° East 186 214 1,100 840 Climbing FlightAware ADS-B
03:07PM 29.9815 -95.2742 61° Northeast 193 222 1,100 720 Level FlightAware ADS-B
03:07PM 29.9840 -95.2704 53° Northeast 199 229 1,200 1,500 Climbing FlightAware ADS-B
03:07PM 29.9866 -95.2676 43° Northeast 203 234 1,300 1,680 Climbing FlightAware ADS-B
03:07PM 29.9891 -95.2653 39° Northeast 208 239 1,400 1,680 Climbing FlightAware ADS-B
03:07PM 29.9921 -95.2633 30° Northeast 211 243 1,500 1,320 Climbing FlightAware ADS-B
03:07PM 29.9965 -95.2610 24° Northeast 215 247 1,600 1,800 Climbing FlightAware ADS-B
03:07PM 30.0112 -95.2540 22° Northeast 227 261 2,100 2,880 Climbing FlightAware ADS-B
03:07PM 30.0268 -95.2465 23° Northeast 226 260 3,100 2,880 Climbing FlightAware ADS-B
03:08PM 30.0373 -95.2412 24° Northeast 237 273 3,400 1,380 Climbing FlightAware ADS-B
03:08PM 30.0534 -95.2330 24° Northeast 261 300 3,700 1,980 Climbing FlightAware ADS-B
03:08PM 30.0706 -95.2242 24° Northeast 266 306 4,400 3,240 Climbing FlightAware ADS-B
03:08PM 30.0784 -95.2200 25° Northeast 265 305 4,900 4,080 Climbing FlightAware ADS-B
03:08PM 30.0945 -95.2099 28° Northeast 259 298 5,900 3,600 Climbing FlightAware ADS-B
03:09PM 30.1101 -95.1992 31° Northeast 257 296 6,700 3,060 Climbing FlightAware ADS-B
03:09PM 30.1260 -95.1885 30° Northeast 261 300 7,500 2,460 Climbing FlightAware ADS-B
03:09PM 30.1420 -95.1777 30° Northeast 271 312 8,000 2,160 Climbing FlightAware ADS-B
03:09PM 30.1585 -95.1667 30° Northeast 276 318 8,600 2,760 Climbing FlightAware ADS-B
03:10PM 30.1757 -95.1554 30° Northeast 279 321 9,400 2,760 Climbing FlightAware ADS-B
03:10PM 30.1927 -95.1442 30° Northeast 286 329 10,000 1,560 Climbing FlightAware ADS-B
03:10PM 30.2299 -95.1205 29° Northeast 317 365 10,600 1,680 Climbing FlightAware ADS-B
03:11PM 30.2700 -95.0943 29° Northeast 336 387 11,700 2,220 Climbing FlightAware ADS-B
03:11PM 30.3122 -95.0666 30° Northeast 350 403 12,900 2,340 Climbing FlightAware ADS-B
03:12PM 30.3556 -95.0380 30° Northeast 359 413 14,100 2,280 Climbing FlightAware ADS-B
03:12PM 30.4002 -95.0087 30° Northeast 370 426 15,200 2,100 Climbing FlightAware ADS-B
03:13PM 30.4463 -94.9738 33° Northeast 382 440 16,300 2,100 Climbing FlightAware ADS-B
03:14PM 30.4919 -94.9390 33° Northeast 391 450 17,400 2,220 Climbing FlightAware ADS-B
03:14PM 30.5395 -94.9027 33° Northeast 395 455 18,600 2,220 Climbing FlightAware ADS-B
03:15PM 30.5864 -94.8667 33° Northeast 398 458 19,700 2,040 Climbing FlightAware ADS-B
03:15PM 30.6337 -94.8303 34° Northeast 406 467 20,700 1,860 Climbing FlightAware ADS-B
03:16PM 30.6816 -94.7933 34° Northeast 413 475 21,600 1,740 Climbing FlightAware ADS-B
03:16PM 30.7313 -94.7550 34° Northeast 421 484 22,500 1,380 Climbing FlightAware ADS-B
03:17PM 30.7854 -94.7135 33° Northeast 431 496 23,100 1,200 Climbing FlightAware ADS-B
03:17PM 30.8479 -94.6652 34° Northeast 440 506 23,900 1,320 Climbing FlightAware ADS-B
03:18PM 30.9017 -94.6236 34° Northeast 453 521 24,600 1,320 Climbing FlightAware ADS-B
03:18PM 30.9726 -94.5688 34° Northeast 463 533 25,500 1,200 Climbing FlightAware ADS-B
03:19PM 31.0306 -94.5238 34° Northeast 471 542 26,100 1,140 Climbing FlightAware ADS-B
03:19PM 31.0870 -94.4798 34° Northeast 480 552 26,700 1,140 Climbing FlightAware ADS-B
03:20PM 31.1431 -94.4364 34° Northeast 487 560 27,300 1,080 Climbing FlightAware ADS-B
03:21PM 31.2080 -94.3859 34° Northeast 491 565 27,900 1,320 Climbing FlightAware ADS-B
03:21PM 31.3046 -94.3104 34° Northeast 496 571 29,200 1,440 Climbing FlightAware ADS-B
03:22PM 31.3643 -94.2638 34° Northeast 495 570 29,900 1,080 Climbing FlightAware ADS-B
03:23PM 31.4906 -94.1648 34° Northeast 496 571 31,000 480 Climbing FlightAware ADS-B
03:24PM 31.6022 -94.0769 34° Northeast 497 572 31,000  Level FlightAware ADS-B
03:25PM 31.6924 -94.0058 34° Northeast 496 571 31,000  Level FlightAware ADS-B
03:25PM 31.7514 -93.9591 34° Northeast 496 571 31,000  Level FlightAware ADS-B
03:26PM 31.8180 -93.9063 34° Northeast 497 572 31,000  Level FlightAware ADS-B
03:26PM 31.8422 -93.8878 34° Northeast 494 568 31,000  Level Houston Center
03:27PM 31.9364 -93.8125 34° Northeast 491 565 31,000  Level Fort Worth Center
03:28PM 32.0397 -93.7056 41° Northeast 497 572 31,000  Level Fort Worth Center
03:29PM 32.1236 -93.5719 53° Northeast 488 562 31,000  Level Fort Worth Center
03:30PM 32.2047 -93.4336 55° Northeast 498 573 31,000  Level Fort Worth Center
03:31PM 32.2903 -93.3022 52° Northeast 508 585 31,000  Level Fort Worth Center
03:32PM 32.3717 -93.1706 54° Northeast 502 578 31,000  Level Fort Worth Center
03:33PM 32.4569 -93.0433 52° Northeast 497 572 31,000 60 Level Fort Worth Center
03:34PM 32.5417 -92.9039 54° Northeast 497 572 31,200 540 Climbing Fort Worth Center
03:35PM 32.6328 -92.7636 52° Northeast 510 587 32,100 840 Climbing Fort Worth Center
03:37PM 32.8106 -92.4756 54° Northeast 530 610 33,700 720 Climbing Memphis Center
03:38PM 32.9008 -92.3292 54° Northeast 530 610 34,300 600 Climbing Memphis Center
03:39PM 32.9947 -92.1828 53° Northeast 540 621 35,000 300 Climbing Memphis Center
03:40PM 33.0867 -92.0358 53° Northeast 545 627 35,000  Level Memphis Center
03:41PM 33.1614 -91.9033 56° Northeast 539 620 35,000  Level Memphis Center
03:42PM 33.2528 -91.7583 53° Northeast 539 620 35,000 240 Level Memphis Center
03:43PM 33.3400 -91.6106 55° Northeast 539 620 35,500 480 Climbing Memphis Center
03:44PM 33.4269 -91.4672 54° Northeast 539 620 36,000 720 Climbing Memphis Center
03:45PM 33.5136 -91.3214 54° Northeast 539 620 37,000 480 Climbing Memphis Center
03:46PM 33.6022 -91.1778 53° Northeast 539 620 37,000  Level Memphis Center
03:47PM 33.6889 -91.0336 54° Northeast 539 620 37,000  Level Memphis Center
03:48PM 33.7772 -90.8894 54° Northeast 533 613 37,000  Level Memphis Center
03:49PM 33.8694 -90.7275 56° Northeast 541 623 37,000  Level Memphis Center
03:50PM 33.9575 -90.5825 54° Northeast 536 617 37,000  Level Memphis Center
03:51PM 34.0433 -90.4375 54° Northeast 536 617 37,000  Level Memphis Center
03:52PM 34.1289 -90.2869 56° Northeast 541 623 37,000  Level Memphis Center
03:53PM 34.2164 -90.1411 54° Northeast 541 623 37,000  Level Memphis Center
03:54PM 34.3017 -89.9925 55° Northeast 541 623 37,000  Level Memphis Center
03:55PM 34.3867 -89.8411 56° Northeast 535 616 37,000  Level Memphis Center
03:56PM 34.4756 -89.6919 54° Northeast 540 621 37,000  Level Memphis Center
03:57PM 34.5603 -89.5400 56° Northeast 540 621 37,000  Level Memphis Center
03:58PM 34.6467 -89.3878 55° Northeast 540 621 37,000  Level Memphis Center
03:59PM 34.7331 -89.2375 55° Northeast 540 621 37,000  Level Memphis Center
04:00PM 34.8192 -89.0872 55° Northeast 540 621 37,000  Level Memphis Center
04:01PM 34.9053 -88.9392 55° Northeast 540 621 37,000  Level Memphis Center
04:02PM 34.9889 -88.7881 56° Northeast 535 616 37,000  Level Memphis Center
04:03PM 35.0747 -88.6419 54° Northeast 535 616 37,000  Level Memphis Center
04:04PM 35.1561 -88.4956 56° Northeast 528 608 37,000  Level Memphis Center
04:05PM 35.2272 -88.3719 55° Northeast 520 598 37,000  Level Memphis Center
04:06PM 35.3081 -88.2250 56° Northeast 520 598 37,000  Level Memphis Center
04:07PM 35.3889 -88.0778 56° Northeast 520 598 37,000  Level Memphis Center
04:08PM 35.4756 -87.9147 57° Northeast 514 592 37,000  Level Memphis Center
04:09PM 35.5558 -87.7669 56° Northeast 514 592 37,000  Level Memphis Center
04:15PM 35.9229 -86.8247 56° Northeast 530 610 37,000  Level FlightAware ADS-B
04:15PM 35.9524 -86.7419 66° East 530 610 37,000  Level FlightAware ADS-B
04:16PM 35.9834 -86.6547 66° East 531 611 37,000  Level FlightAware ADS-B
04:16PM 36.0138 -86.5696 66° East 532 612 37,000  Level FlightAware ADS-B
04:17PM 36.0472 -86.4756 66° East 533 613 37,000  Level FlightAware ADS-B
04:17PM 36.0768 -86.3913 66° East 535 616 37,000  Level FlightAware ADS-B
04:18PM 36.1065 -86.3072 66° East 535 616 37,000  Level FlightAware ADS-B
04:18PM 36.1362 -86.2230 66° East 535 616 37,000  Level FlightAware ADS-B
04:19PM 36.1660 -86.1386 66° East 536 617 37,000  Level FlightAware ADS-B
04:20PM 36.2014 -86.0364 67° East 536 617 37,000  Level FlightAware ADS-B
04:20PM 36.2336 -85.9432 67° East 537 618 37,000  Level FlightAware ADS-B
04:21PM 36.2632 -85.8581 67° East 537 618 37,000  Level FlightAware ADS-B
04:22PM 36.3425 -85.6288 67° East 536 617 37,000  Level FlightAware ADS-B
04:22PM 36.3724 -85.5421 67° East 537 618 37,000  Level FlightAware ADS-B
04:23PM 36.4016 -85.4570 67° East 537 618 37,000  Level FlightAware ADS-B
04:23PM 36.4330 -85.3673 66° East 537 618 37,000  Level FlightAware ADS-B
04:24PM 36.4707 -85.2574 67° East 538 619 37,000  Level FlightAware ADS-B
04:25PM 36.5004 -85.1704 67° East 538 619 37,000  Level FlightAware ADS-B
04:25PM 36.5394 -85.0546 67° East 541 623 37,000  Level FlightAware ADS-B
04:26PM 36.5708 -84.9612 67° East 542 624 37,000  Level FlightAware ADS-B
04:26PM 36.6010 -84.8703 67° East 543 625 37,000  Level FlightAware ADS-B
04:27PM 36.6299 -84.7831 68° East 545 627 37,000  Level FlightAware ADS-B
04:27PM 36.6590 -84.6958 67° East 544 626 37,000  Level FlightAware ADS-B
04:28PM 36.6883 -84.6076 67° East 544 626 37,000  Level FlightAware ADS-B
04:28PM 36.7176 -84.5196 67° East 545 627 37,000  Level FlightAware ADS-B
04:29PM 36.7484 -84.4265 68° East 546 628 37,000  Level FlightAware ADS-B
04:29PM 36.7777 -84.3378 68° East 547 629 37,000  Level FlightAware ADS-B
04:30PM 36.8066 -84.2504 68° East 548 631 37,000  Level FlightAware ADS-B
04:30PM 36.8356 -84.1620 68° East 548 631 37,000  Level FlightAware ADS-B
04:31PM 36.8648 -84.0725 68° East 548 631 37,000  Level FlightAware ADS-B
04:31PM 36.8941 -83.9821 68° East 548 631 37,000  Level FlightAware ADS-B
04:32PM 36.9274 -83.8803 68° East 549 632 37,000  Level FlightAware ADS-B
04:33PM 36.9558 -83.7926 68° East 549 632 37,000  Level FlightAware ADS-B
04:33PM 36.9852 -83.7019 68° East 549 632 37,000  Level FlightAware ADS-B
04:34PM 37.0145 -83.6105 68° East 548 631 37,000  Level FlightAware ADS-B
04:34PM 37.0431 -83.5209 68° East 548 631 37,000  Level FlightAware ADS-B
04:35PM 37.0740 -83.4238 68° East 547 629 37,000  Level FlightAware ADS-B
04:35PM 37.1052 -83.3263 68° East 545 627 37,000  Level FlightAware ADS-B
04:36PM 37.1360 -83.2298 68° East 545 627 37,000  Level FlightAware ADS-B
04:37PM 37.1837 -83.0810 68° East 546 628 37,000  Level FlightAware ADS-B
04:37PM 37.2125 -82.9887 69° East 545 627 37,000  Level FlightAware ADS-B
04:38PM 37.2475 -82.8759 69° East 545 627 37,000  Level FlightAware ADS-B
04:38PM 37.2758 -82.7852 69° East 543 625 37,000  Level FlightAware ADS-B
04:39PM 37.3041 -82.6945 69° East 543 625 37,000  Level FlightAware ADS-B
04:39PM 37.3343 -82.5974 69° East 541 623 37,000  Level FlightAware ADS-B
04:40PM 37.3963 -82.3980 69° East 541 623 37,000  Level FlightAware ADS-B
04:41PM 37.4342 -82.2750 69° East 540 621 37,000  Level FlightAware ADS-B
04:42PM 37.4611 -82.1875 69° East 539 620 37,000  Level FlightAware ADS-B
04:42PM 37.4881 -82.0990 69° East 538 619 37,000  Level FlightAware ADS-B
04:43PM 37.5394 -81.9299 69° East 538 619 37,000  Level FlightAware ADS-B
04:44PM 37.5759 -81.8087 69° East 538 619 37,000  Level FlightAware ADS-B
04:45PM 37.6100 -81.6960 69° East 535 616 37,000  Level FlightAware
04:45PM 37.6510 -81.5590 69° East 534 615 37,000  Level FlightAware
04:45PM 37.6605 -81.5269 69° East 535 616 37,000  Level FlightAware ADS-B
04:46PM 37.6850 -81.4440 69° East 533 613 37,000  Level FlightAware
04:47PM 37.7200 -81.3270 69° East 531 611 37,000  Level FlightAware
04:47PM 37.7580 -81.1980 70° East 533 613 37,000  Level FlightAware
04:48PM 37.7820 -81.0790 76° East 534 615 37,000  Level FlightAware
04:49PM 37.7920 -80.9560 84° East 533 613 37,000  Level FlightAware
04:49PM 37.8010 -80.8120 85° East 532 612 37,000  Level FlightAware
04:50PM 37.8090 -80.6910 85° East 531 611 37,000  Level FlightAware
04:51PM 37.8190 -80.5390 85° East 531 611 37,000  Level FlightAware
04:52PM 37.8280 -80.4060 85° East 531 611 37,000  Level FlightAware
04:52PM 37.8350 -80.3010 85° East 531 611 37,000  Level FlightAware
04:53PM 37.8460 -80.1090 86° East 534 615 37,000  Level FlightAware
04:54PM 37.8580 -79.9180 85° East 536 617 37,000  Level FlightAware
04:55PM 37.8650 -79.8110 85° East 536 617 37,000  Level FlightAware
04:56PM 37.8710 -79.6560 87° East 539 620 37,000  Level FlightAware
04:56PM 37.8780 -79.5250 86° East 537 618 37,000  Level FlightAware
04:57PM 37.8860 -79.3800 86° East 538 619 37,000  Level FlightAware
04:58PM 37.8980 -79.1630 86° East 536 617 37,000  Level FlightAware
04:59PM 37.9110 -79.0230 83° East 536 617 37,000  Level FlightAware
05:00PM 37.9260 -78.8970 81° East 535 616 37,000  Level FlightAware
05:00PM 37.9410 -78.7750 81° East 536 617 37,000  Level FlightAware
05:01PM 37.9570 -78.6330 82° East 532 612 37,000  Level FlightAware
05:02PM 37.9720 -78.5100 81° East 532 612 37,000  Level FlightAware
05:03PM 37.9880 -78.3760 81° East 531 611 37,000  Level FlightAware
05:03PM 38.0020 -78.2550 82° East 531 611 37,000  Level FlightAware
05:04PM 38.0290 -78.1310 75° East 531 611 37,000  Level FlightAware
05:05PM 38.0860 -78.0080 59° Northeast 528 608 37,000  Level FlightAware
05:05PM 38.1069 -77.9665 57° Northeast 529 609 37,000  Level FlightAware ADS-B
05:05PM 38.1420 -77.8960 58° Northeast 528 608 37,000  Level FlightAware
05:05PM 38.1513 -77.8772 58° Northeast 528 608 37,000  Level FlightAware ADS-B
05:06PM 38.1950 -77.7900 57° Northeast 526 605 37,000  Level FlightAware
05:06PM 38.2066 -77.7661 58° Northeast 526 605 37,000  Level FlightAware ADS-B
05:07PM 38.2470 -77.6850 58° Northeast 525 604 37,000  Level FlightAware
05:07PM 38.2654 -77.6477 58° Northeast 525 604 37,000  Level FlightAware ADS-B
05:07PM 38.3041 -77.5695 58° Northeast 524 603 37,000  Level FlightAware ADS-B
05:08PM 38.3580 -77.4600 58° Northeast 523 602 37,000  Level FlightAware
05:08PM 38.3678 -77.4411 57° Northeast 525 604 37,000  Level FlightAware ADS-B
05:09PM 38.4147 -77.3677 51° Northeast 519 597 37,000  Level FlightAware ADS-B
05:09PM 38.4638 -77.2960 49° Northeast 520 598 37,000  Level FlightAware ADS-B
05:10PM 38.5145 -77.2215 49° Northeast 518 596 37,000  Level FlightAware ADS-B
05:10PM 38.5626 -77.1503 49° Northeast 520 598 37,000  Level FlightAware ADS-B
05:11PM 38.6118 -77.0776 49° Northeast 518 596 37,000  Level FlightAware ADS-B
05:11PM 38.6660 -76.9972 49° Northeast 519 597 37,000  Level FlightAware ADS-B
05:12PM 38.7144 -76.9254 49° Northeast 520 598 37,000  Level FlightAware ADS-B
05:12PM 38.7619 -76.8552 49° Northeast 520 598 37,000  Level FlightAware ADS-B
05:13PM 38.8103 -76.7830 49° Northeast 523 602 37,000 -300 Level FlightAware ADS-B
05:14PM 38.8673 -76.6974 49° Northeast 524 603 36,700 -720 Descending FlightAware ADS-B
05:14PM 38.9188 -76.6198 50° Northeast 530 610 36,200 -1,080 Descending FlightAware ADS-B
05:15PM 38.9698 -76.5436 49° Northeast 534 615 35,600 -1,860 Descending FlightAware ADS-B
05:15PM 39.0187 -76.4703 49° Northeast 534 615 34,300 -2,760 Descending FlightAware ADS-B
05:16PM 39.0672 -76.3961 50° Northeast 539 620 32,800 -3,060 Descending FlightAware ADS-B
05:16PM 39.1169 -76.3207 50° Northeast 542 624 31,200 -3,000 Descending FlightAware ADS-B
05:17PM 39.1668 -76.2461 49° Northeast 543 625 29,700 -2,940 Descending FlightAware ADS-B
05:17PM 39.2209 -76.1641 50° Northeast 541 623 28,100 -2,700 Descending FlightAware ADS-B
05:18PM 39.2581 -76.1080 49° Northeast 537 618 27,200 -1,560 Descending FlightAware ADS-B
05:18PM 39.3153 -76.0372 44° Northeast 531 611 26,700 -960 Descending FlightAware ADS-B
05:19PM 39.3702 -75.9720 43° Northeast 531 611 26,200 -1,200 Descending FlightAware ADS-B
05:19PM 39.4263 -75.9054 43° Northeast 526 605 25,500 -1,200 Descending FlightAware ADS-B
05:20PM 39.4799 -75.8419 42° Northeast 509 586 25,000 -540 Descending FlightAware ADS-B
05:20PM 39.5320 -75.7802 42° Northeast 510 587 25,000  Level FlightAware ADS-B
05:21PM 39.5846 -75.7179 42° Northeast 514 592 25,000  Level FlightAware ADS-B
05:21PM 39.6400 -75.6522 42° Northeast 517 595 25,000  Level FlightAware ADS-B
05:22PM 39.6977 -75.5834 43° Northeast 517 595 25,000  Level FlightAware ADS-B
05:22PM 39.7504 -75.5200 43° Northeast 518 596 25,000 -420 Level FlightAware ADS-B
05:23PM 39.8030 -75.4564 43° Northeast 509 586 24,600 -2,100 Descending FlightAware ADS-B
05:23PM 39.8564 -75.3924 43° Northeast 515 593 22,900 -3,660 Descending FlightAware ADS-B
05:24PM 39.9099 -75.3278 43° Northeast 531 611 20,900 -3,300 Descending FlightAware ADS-B
05:24PM 39.9675 -75.2573 43° Northeast 517 595 19,500 -2,580 Descending FlightAware ADS-B
05:25PM 40.0187 -75.1944 43° Northeast 492 566 18,200 -2,820 Descending FlightAware ADS-B
05:25PM 40.0697 -75.1319 43° Northeast 476 548 16,600 -3,000 Descending FlightAware ADS-B
05:26PM 40.1174 -75.0739 43° Northeast 459 528 15,100 -3,060 Descending FlightAware ADS-B
05:26PM 40.1642 -75.0171 43° Northeast 447 514 13,500 -3,180 Descending FlightAware ADS-B
05:27PM 40.2100 -74.9611 43° Northeast 432 497 11,900 -3,060 Descending FlightAware ADS-B
05:27PM 40.2555 -74.9049 43° Northeast 412 474 10,300 -1,740 Descending FlightAware ADS-B
05:28PM 40.2938 -74.8521 46° Northeast 369 425 10,100 -360 Descending FlightAware ADS-B
05:28PM 40.3220 -74.8119 47° Northeast 338 389 10,000 -780 Descending FlightAware ADS-B
05:29PM 40.3380 -74.7889 48° Northeast 325 374 9,600 -2,460 Descending FlightAware ADS-B
05:29PM 40.3545 -74.7659 47° Northeast 318 366 8,700 -2,820 Descending FlightAware ADS-B
05:29PM 40.3698 -74.7442 47° Northeast 314 361 8,100 -2,460 Descending FlightAware ADS-B
05:29PM 40.3851 -74.7226 47° Northeast 289 333 7,400 -2,580 Descending FlightAware ADS-B
05:30PM 40.3998 -74.7024 46° Northeast 286 329 6,700 -2,400 Descending FlightAware ADS-B
05:30PM 40.4111 -74.6870 46° Northeast 277 319 6,300 -1,800 Descending FlightAware ADS-B
05:30PM 40.4154 -74.6823 40° Northeast 275 316 6,200 -540 Descending FlightAware ADS-B
05:30PM 40.4225 -74.6758 35° Northeast 274 315 6,200  Level FlightAware ADS-B
05:30PM 40.4286 -74.6713 29° Northeast 276 318 6,200  Level FlightAware ADS-B
05:30PM 40.4348 -74.6677 24° Northeast 275 316 6,200  Level FlightAware ADS-B
05:30PM 40.4407 -74.6650 19° North 274 315 6,200 -480 Level FlightAware ADS-B
05:30PM 40.4497 -74.6622 13° North 269 310 6,100  Descending FlightAware ADS-B
05:31PM 40.4688 -74.6572 11° North 269 310 6,200 180 Climbing FlightAware ADS-B
05:31PM 40.4889 -74.6517 12° North 268 308 6,200  Level FlightAware ADS-B
05:31PM 40.5049 -74.6476 11° North 267 307 6,200 -240 Level FlightAware ADS-B
05:31PM 40.5240 -74.6429 11° North 271 312 6,100  Descending FlightAware ADS-B
05:32PM 40.5441 -74.6373 12° North 268 308 6,200  Climbing FlightAware ADS-B
05:32PM 40.5855 -74.6260 12° North 263 303 6,100 -120 Descending FlightAware ADS-B
05:33PM 40.6058 -74.6203 12° North 268 308 6,100 180 Level FlightAware ADS-B
05:33PM 40.6256 -74.6151 11° North 270 311 6,200  Climbing FlightAware ADS-B
05:33PM 40.6394 -74.6115 11° North 268 308 6,100 -240 Descending FlightAware ADS-B
05:33PM 40.6588 -74.6063 11° North 268 308 6,100  Level FlightAware ADS-B
05:34PM 40.6774 -74.6012 12° North 265 305 6,100 180 Level FlightAware ADS-B
05:34PM 40.6949 -74.5908 24° Northeast 275 316 6,200  Climbing FlightAware ADS-B
05:34PM 40.7009 -74.5857 33° Northeast 278 320 6,100 -1,140 Descending FlightAware ADS-B
05:35PM 40.7473 -74.5464 33° Northeast 280 322 5,300 -960 Descending FlightAware ADS-B
05:35PM 40.7702 -74.5271 33° Northeast 271 312 5,100 -180 Descending FlightAware ADS-B
05:35PM 40.7870 -74.5128 33° Northeast 271 312 5,200  Climbing FlightAware ADS-B
05:36PM 40.8124 -74.4916 32° Northeast 280 322 5,100  Descending FlightAware ADS-B
05:36PM 40.8292 -74.4774 33° Northeast 274 315 5,200 60 Climbing FlightAware ADS-B
05:37PM 40.8660 -74.4360 40° Northeast 279 321 5,200  Level FlightAware
05:37PM 40.8746 -74.4231 49° Northeast 275 316 5,200  Level FlightAware ADS-B
05:37PM 40.8772 -74.4189 51° Northeast 279 321 5,200 -180 Level FlightAware ADS-B
05:37PM 40.9080 -74.3690 51° Northeast 279 321 5,100 -180 Descending FlightAware
05:38PM 40.9350 -74.3250 51° Northeast 280 322 5,000 -540 Descending FlightAware
05:38PM 40.9435 -74.3025 63° Northeast 284 327 4,700 -1,320 Descending FlightAware ADS-B
05:38PM 40.9448 -74.2954 76° East 287 330 4,700 -1,020 Level FlightAware ADS-B
05:38PM 40.9457 -74.2824 85° East 289 333 4,500 -1,140 Descending FlightAware ADS-B
05:38PM 40.9452 -74.2766 97° East 290 334 4,500 -900 Level FlightAware ADS-B
05:39PM 40.9443 -74.2701 100° East 291 335 4,400 -1,200 Descending FlightAware ADS-B
05:39PM 40.9416 -74.2601 110° East 290 334 4,300 -1,380 Descending FlightAware ADS-B
05:39PM 40.9395 -74.2546 117° Southeast 289 333 4,200 -360 Descending FlightAware ADS-B
05:39PM 40.9294 -74.2343 123° Southeast 289 333 4,200  Level FlightAware ADS-B
05:39PM 40.9071 -74.1873 122° Southeast 284 327 4,200  Level FlightAware ADS-B
05:40PM 40.8966 -74.1643 121° Southeast 287 330 4,200 -240 Level FlightAware ADS-B
05:40PM 40.8842 -74.1375 121° Southeast 287 330 4,100 -960 Descending FlightAware ADS-B
05:40PM 40.8650 -74.0968 122° Southeast 280 322 3,500 -1,380 Descending FlightAware ADS-B
05:41PM 40.8626 -74.0921 124° Southeast 270 311 3,400 -1,500 Descending FlightAware ADS-B
05:41PM 40.8589 -74.0858 128° Southeast 267 307 3,300 -900 Descending FlightAware ADS-B
05:41PM 40.8513 -74.0776 141° Southeast 250 288 3,200 -900 Descending FlightAware ADS-B
05:41PM 40.8457 -74.0745 157° South 238 274 3,100 -780 Descending FlightAware ADS-B
05:41PM 40.8424 -74.0737 170° South 231 266 3,100  Level FlightAware ADS-B
05:41PM 40.8327 -74.0748 185° South 214 246 3,100 360 Level FlightAware ADS-B
05:41PM 40.8272 -74.0770 197° South 206 237 3,200 300 Climbing FlightAware ADS-B
05:41PM 40.8164 -74.0816 198° South 190 219 3,200 -600 Level FlightAware ADS-B
05:42PM 40.7919 -74.0862 188° South 183 211 2,800 -780 Descending FlightAware ADS-B
05:42PM 40.7840 -74.0854 176° South 179 206 2,700 -900 Descending FlightAware ADS-B
05:42PM 40.7751 -74.0847 177° South 177 204 2,500 -840 Descending FlightAware ADS-B
05:42PM 40.7658 -74.0839 176° South 172 198 2,400 -600 Descending FlightAware ADS-B